createdAt,value
2022-12-15T05:02:03.060Z,-4.96
2022-12-15T05:04:50.700Z,-4.95
2022-12-15T05:07:38.294Z,-4.95
2022-12-15T05:10:26.848Z,-4.91
2022-12-15T05:13:25.695Z,-4.84
2022-12-15T05:16:16.021Z,-4.73
2022-12-15T05:21:27.498Z,-4.55
2022-12-15T05:24:18.557Z,-4.48
2022-12-15T05:27:09.924Z,-4.44
2022-12-15T05:30:01.636Z,-4.47
2022-12-15T05:32:34.455Z,-4.51
2022-12-15T05:35:06.397Z,-4.50
2022-12-15T05:37:41.266Z,-4.45
2022-12-15T05:40:13.810Z,-4.39
2022-12-15T05:42:49.973Z,-4.38
2022-12-15T05:45:23.219Z,-4.40
2022-12-15T05:47:53.070Z,-4.42
2022-12-15T05:50:25.726Z,-4.46
2022-12-15T05:52:59.150Z,-4.47
2022-12-15T05:55:47.844Z,-4.45
2022-12-15T05:59:22.665Z,-4.39
2022-12-15T06:01:55.441Z,-4.36
2022-12-15T06:04:29.647Z,-4.30
2022-12-15T06:07:03.613Z,-4.21
2022-12-15T06:09:52.397Z,-4.10
2022-12-15T06:12:25.029Z,-4.06
2022-12-15T06:14:57.803Z,-4.00
2022-12-15T06:17:30.910Z,-3.95
2022-12-15T06:20:00.210Z,-3.91
2022-12-15T06:22:32.844Z,-3.90
2022-12-15T06:25:05.924Z,-3.87
2022-12-15T06:27:37.552Z,-3.86
2022-12-15T06:30:07.226Z,-3.86
2022-12-15T06:32:36.901Z,-3.87
2022-12-15T06:35:05.519Z,-3.89
2022-12-15T06:37:34.641Z,-3.89
2022-12-15T06:40:03.666Z,-3.87
2022-12-15T06:45:31.034Z,-3.82
2022-12-15T06:48:01.635Z,-3.80
2022-12-15T06:50:31.161Z,-3.75
2022-12-15T06:53:00.867Z,-3.69
2022-12-15T06:55:29.138Z,-3.64
2022-12-15T06:57:58.063Z,-3.59
2022-12-15T07:00:28.330Z,-3.56
2022-12-15T07:02:56.819Z,-3.52
2022-12-15T07:05:26.103Z,-3.50
2022-12-15T07:07:55.176Z,-3.50
2022-12-15T07:10:24.433Z,-3.51
2022-12-15T07:12:53.461Z,-3.50
2022-12-15T07:15:22.750Z,-3.49
2022-12-15T07:17:57.275Z,-3.47
2022-12-15T07:20:28.939Z,-3.45
2022-12-15T07:22:58.472Z,-3.46
2022-12-15T07:25:26.944Z,-3.49
2022-12-15T07:27:56.416Z,-3.50
2022-12-15T07:30:25.463Z,-3.51
2022-12-15T07:32:54.353Z,-3.53
2022-12-15T07:35:23.480Z,-3.55
2022-12-15T07:37:52.448Z,-3.55
2022-12-15T07:40:21.015Z,-3.55
2022-12-15T07:42:49.794Z,-3.53
2022-12-15T07:45:19.000Z,-3.49
2022-12-15T07:47:51.060Z,-3.44
2022-12-15T07:50:20.528Z,-3.39
2022-12-15T07:52:51.372Z,-3.37
2022-12-15T07:55:37.244Z,-3.35
2022-12-15T07:58:09.370Z,-3.39
2022-12-15T08:00:38.128Z,-3.41
2022-12-15T08:03:06.679Z,-3.43
2022-12-15T08:05:35.884Z,-3.46
2022-12-15T08:08:04.702Z,-3.47
2022-12-15T08:10:33.450Z,-3.47
2022-12-15T08:13:01.658Z,-3.50
2022-12-15T08:15:30.355Z,-3.52
2022-12-15T08:17:59.122Z,-3.55
2022-12-15T08:20:27.539Z,-3.57
2022-12-15T08:22:56.124Z,-3.59
2022-12-15T08:25:25.397Z,-3.55
2022-12-15T08:27:53.866Z,-3.52
2022-12-15T08:30:23.209Z,-3.47
2022-12-15T08:32:52.330Z,-3.42
2022-12-15T08:35:54.470Z,-3.36
2022-12-15T08:38:10.687Z,-3.29
2022-12-15T08:40:39.918Z,-3.24
2022-12-15T08:43:08.956Z,-3.20
2022-12-15T08:45:41.294Z,-3.17
2022-12-15T08:48:09.246Z,-3.15
2022-12-15T08:50:37.837Z,-3.15
2022-12-15T08:53:30.379Z,-3.19
2022-12-15T08:55:55.819Z,-3.22
2022-12-15T08:58:24.653Z,-3.21
2022-12-15T09:00:53.683Z,-3.21
2022-12-15T09:03:22.774Z,-3.22
2022-12-15T09:05:51.648Z,-3.22
2022-12-15T09:08:20.741Z,-3.25
2022-12-15T09:10:52.673Z,-3.25
2022-12-15T09:13:22.123Z,-3.24
2022-12-15T09:16:10.953Z,-3.24
2022-12-15T09:18:44.655Z,-3.18
2022-12-15T09:21:14.578Z,-3.15
2022-12-15T09:23:48.549Z,-3.12
2022-12-15T09:26:23.044Z,-3.07
2022-12-15T09:28:55.081Z,-3.04
2022-12-15T09:31:30.058Z,-3.03
2022-12-15T09:34:00.614Z,-2.99
2022-12-15T09:36:33.221Z,-2.99
2022-12-15T09:39:03.057Z,-2.97
2022-12-15T09:41:35.674Z,-2.98
2022-12-15T09:44:20.356Z,-2.99
2022-12-15T09:47:16.200Z,-3.02
2022-12-15T09:49:56.969Z,-3.04
2022-12-15T09:52:30.583Z,-3.06
2022-12-15T09:55:02.325Z,-3.09
2022-12-15T09:57:40.533Z,-3.14
2022-12-15T10:00:22.480Z,-3.19
2022-12-15T10:03:13.464Z,-3.18
2022-12-15T10:08:58.257Z,-3.15
2022-12-15T10:11:50.247Z,-3.09
2022-12-15T10:14:44.448Z,-3.05
2022-12-15T10:17:35.014Z,-3.12
2022-12-15T10:20:20.564Z,-3.11
2022-12-15T10:22:50.665Z,-3.11
2022-12-15T10:25:29.366Z,-3.14
2022-12-15T10:28:10.907Z,-3.17
2022-12-15T10:30:51.538Z,-3.20
2022-12-15T10:33:24.649Z,-3.20
2022-12-15T10:35:55.404Z,-3.18
2022-12-15T10:38:41.136Z,-3.17
2022-12-15T10:41:19.510Z,-3.15
2022-12-15T10:43:53.860Z,-3.16
2022-12-15T10:46:29.062Z,-3.14
2022-12-15T10:49:00.542Z,-3.13
2022-12-15T10:51:46.071Z,-3.11
2022-12-15T10:54:16.774Z,-3.08
2022-12-15T10:56:59.740Z,-3.08
2022-12-15T10:59:34.771Z,-3.07
2022-12-15T11:02:34.755Z,-3.07
2022-12-15T11:05:11.421Z,-3.04
2022-12-15T11:07:46.271Z,-3.03
2022-12-15T11:10:24.943Z,-3.05
2022-12-15T11:12:58.708Z,-3.07
2022-12-15T11:15:39.690Z,-3.08
2022-12-15T11:18:16.514Z,-3.10
2022-12-15T11:21:08.688Z,-3.13
2022-12-15T11:23:50.456Z,-3.16
2022-12-15T11:26:49.003Z,-3.19
2022-12-15T11:29:24.629Z,-3.24
2022-12-15T11:31:54.816Z,-3.25
2022-12-15T11:34:28.054Z,-3.27
2022-12-15T11:37:37.190Z,-3.26
2022-12-15T11:40:26.364Z,-3.26
2022-12-15T11:43:29.831Z,-3.25
2022-12-15T11:46:24.023Z,-3.20
2022-12-15T11:52:43.799Z,-3.18
2022-12-15T11:55:41.404Z,-3.18
2022-12-15T11:58:43.229Z,-3.18
2022-12-15T12:01:34.271Z,-3.20
2022-12-15T12:04:13.897Z,-3.23
2022-12-15T12:06:43.335Z,-3.26
2022-12-15T12:09:18.771Z,-3.31
2022-12-15T12:12:14.022Z,-3.36
2022-12-15T12:15:01.187Z,-3.39
2022-12-15T12:18:13.844Z,-3.41
2022-12-15T12:21:01.592Z,-3.45
2022-12-15T12:24:03.156Z,-3.48
2022-12-15T12:26:39.819Z,-3.56
2022-12-15T12:29:48.797Z,-3.60
2022-12-15T12:32:50.739Z,-3.64
2022-12-15T12:35:31.023Z,-3.68
2022-12-15T12:38:06.541Z,-3.70
2022-12-15T12:40:41.917Z,-3.71
2022-12-15T12:43:22.329Z,-3.74
2022-12-15T12:46:10.737Z,-3.77
2022-12-15T12:48:48.584Z,-3.74
2022-12-15T12:51:25.950Z,-3.70
2022-12-15T12:53:55.779Z,-3.69
2022-12-15T12:56:43.437Z,-3.68
2022-12-15T12:59:29.998Z,-3.67
2022-12-15T13:02:31.712Z,-3.66
2022-12-15T13:05:21.944Z,-3.64
2022-12-15T13:08:05.395Z,-3.62
2022-12-15T13:10:36.577Z,-3.65
2022-12-15T13:13:30.008Z,-3.68
2022-12-15T13:16:06.684Z,-3.69
2022-12-15T13:19:04.829Z,-3.68
2022-12-15T13:21:44.532Z,-3.69
2022-12-15T13:24:35.925Z,-3.72
2022-12-15T13:27:11.677Z,-3.73
2022-12-15T13:30:07.357Z,-3.74
2022-12-15T13:33:16.753Z,-3.75
2022-12-15T13:35:46.425Z,-3.77
2022-12-15T13:38:19.089Z,-3.82
2022-12-15T13:40:47.716Z,-3.84
2022-12-15T13:43:29.657Z,-3.87
2022-12-15T13:46:12.335Z,-3.89
2022-12-15T13:48:45.717Z,-3.87
2022-12-15T13:51:31.383Z,-3.82
2022-12-15T13:54:04.906Z,-3.78
2022-12-15T13:56:47.151Z,-3.76
2022-12-15T13:59:45.821Z,-3.72
2022-12-15T14:02:37.412Z,-3.69
2022-12-15T14:05:07.449Z,-3.64
2022-12-15T14:07:36.087Z,-3.60
2022-12-15T14:10:07.971Z,-3.60
2022-12-15T14:12:39.840Z,-3.62
2022-12-15T14:15:20.453Z,-3.63
2022-12-15T14:17:53.385Z,-3.67
2022-12-15T14:20:26.318Z,-3.69
2022-12-15T14:22:55.343Z,-3.72
2022-12-15T14:25:31.167Z,-3.74
2022-12-15T14:27:59.782Z,-3.77
2022-12-15T14:30:33.234Z,-3.78
2022-12-15T14:33:01.321Z,-3.76
2022-12-15T14:35:34.890Z,-3.73
2022-12-15T14:38:06.304Z,-3.68
2022-12-15T14:40:38.039Z,-3.67
2022-12-15T14:43:30.657Z,-3.63
2022-12-15T14:46:12.706Z,-3.57
2022-12-15T14:48:49.284Z,-3.53
2022-12-15T14:51:18.683Z,-3.47
2022-12-15T14:53:53.549Z,-3.42
2022-12-15T14:56:29.395Z,-3.40
2022-12-15T14:59:04.739Z,-3.36
2022-12-15T15:02:08.122Z,-3.35
2022-12-15T15:03:03.793Z,-3.15
2022-12-15T15:03:09.223Z,-3.20
2022-12-15T15:04:37.285Z,-3.34
2022-12-15T15:07:15.621Z,-3.35
2022-12-15T15:09:46.470Z,-3.34
2022-12-15T15:12:21.512Z,-3.33
2022-12-15T15:15:08.881Z,-3.31
2022-12-15T15:17:44.396Z,-3.30
2022-12-15T15:20:32.531Z,-3.30
2022-12-15T15:23:17.847Z,-3.29
2022-12-15T15:25:54.633Z,-3.24
2022-12-15T15:28:37.804Z,-3.19
2022-12-15T15:31:42.391Z,-3.12
2022-12-15T15:34:11.724Z,-3.03
2022-12-15T15:36:40.160Z,-2.97
2022-12-15T15:39:20.512Z,-2.91
2022-12-15T15:41:49.579Z,-2.87
2022-12-15T15:44:18.927Z,-2.85
2022-12-15T15:46:51.234Z,-2.83
2022-12-15T15:49:22.299Z,-2.81
2022-12-15T15:51:51.892Z,-2.77
2022-12-15T15:54:25.605Z,-2.77
2022-12-15T15:56:54.876Z,-2.78
2022-12-15T15:59:25.363Z,-2.77
2022-12-15T16:01:56.620Z,-2.77
2022-12-15T16:04:26.834Z,-2.76
2022-12-15T16:06:55.468Z,-2.74
2022-12-15T16:09:24.931Z,-2.72
2022-12-15T16:11:53.757Z,-2.71
2022-12-15T16:14:22.379Z,-2.71
2022-12-15T16:16:54.416Z,-2.71
2022-12-15T16:19:24.512Z,-2.68
2022-12-15T16:21:53.351Z,-2.68
2022-12-15T16:24:22.303Z,-2.67
2022-12-15T16:26:52.343Z,-2.63
2022-12-15T16:29:23.000Z,-2.60
2022-12-15T16:31:52.931Z,-2.57
2022-12-15T16:34:22.591Z,-2.53
2022-12-15T16:36:52.785Z,-2.51
2022-12-15T16:39:28.700Z,-2.50
2022-12-15T16:41:57.583Z,-2.49
2022-12-15T16:44:27.599Z,-2.50
2022-12-15T16:46:57.118Z,-2.51
2022-12-15T16:49:25.659Z,-2.52
2022-12-15T16:51:54.399Z,-2.52
2022-12-15T16:54:26.814Z,-2.51
2022-12-15T16:56:57.474Z,-2.52
2022-12-15T16:59:36.174Z,-2.54
2022-12-15T17:02:27.565Z,-2.55
2022-12-15T17:04:56.835Z,-2.53
2022-12-15T17:07:28.006Z,-2.51
2022-12-15T17:09:57.339Z,-2.47
2022-12-15T17:12:26.021Z,-2.44
2022-12-15T17:14:54.700Z,-2.42
2022-12-15T17:17:23.829Z,-2.42
2022-12-15T17:22:47.899Z,-2.40
2022-12-15T17:25:28.417Z,-2.39
2022-12-15T17:28:19.098Z,-2.39
2022-12-15T17:30:48.465Z,-2.40
2022-12-15T17:33:26.144Z,-2.43
2022-12-15T17:35:57.150Z,-2.44
2022-12-15T17:38:30.060Z,-2.46
2022-12-15T17:40:59.034Z,-2.49
2022-12-15T17:43:33.812Z,-2.51
2022-12-15T17:46:05.297Z,-2.54
2022-12-15T17:48:34.657Z,-2.57
2022-12-15T17:51:03.969Z,-2.54
2022-12-15T17:53:33.409Z,-2.51
2022-12-15T17:56:06.213Z,-2.47
2022-12-15T17:58:37.392Z,-2.44
2022-12-15T18:01:07.133Z,-2.42
2022-12-15T18:03:37.587Z,-2.39
2022-12-15T18:06:16.079Z,-2.37
2022-12-15T18:08:45.778Z,-2.36
2022-12-15T18:11:18.380Z,-2.37
2022-12-15T18:13:50.196Z,-2.38
2022-12-15T18:16:24.680Z,-2.40
2022-12-15T18:18:53.704Z,-2.41
2022-12-15T18:21:22.610Z,-2.45
2022-12-15T18:23:52.523Z,-2.49
2022-12-15T18:26:21.481Z,-2.55
2022-12-15T18:28:50.182Z,-2.59
2022-12-15T18:31:27.692Z,-2.62
2022-12-15T18:34:00.987Z,-2.63
2022-12-15T18:36:36.217Z,-2.66
2022-12-15T18:39:24.050Z,-2.67
2022-12-15T18:41:56.615Z,-2.65
2022-12-15T18:44:32.389Z,-2.59
2022-12-15T18:47:16.211Z,-2.54
2022-12-15T18:49:51.392Z,-2.49
2022-12-15T18:52:30.019Z,-2.44
2022-12-15T18:55:16.940Z,-2.41
2022-12-15T18:57:46.056Z,-2.38
2022-12-15T19:00:15.166Z,-2.35
2022-12-15T19:02:44.293Z,-2.36
2022-12-15T19:05:33.554Z,-2.35
2022-12-15T19:08:10.783Z,-2.37
2022-12-15T19:11:00.912Z,-2.40
2022-12-15T19:13:33.104Z,-2.43
2022-12-15T19:16:05.314Z,-2.46
2022-12-15T19:18:53.353Z,-2.49
2022-12-15T19:21:47.088Z,-2.52
2022-12-15T19:24:46.976Z,-2.53
2022-12-15T19:27:23.927Z,-2.57
2022-12-15T19:29:55.163Z,-2.61
2022-12-15T19:32:24.354Z,-2.65
2022-12-15T19:34:53.723Z,-2.68
2022-12-15T19:37:30.202Z,-2.71
2022-12-15T19:40:00.858Z,-2.70
2022-12-15T19:42:34.063Z,-2.68
2022-12-15T19:45:16.269Z,-2.65
2022-12-15T19:47:45.214Z,-2.62
2022-12-15T19:50:18.549Z,-2.58
2022-12-15T19:52:49.285Z,-2.55
2022-12-15T19:55:26.084Z,-2.53
2022-12-15T19:57:54.273Z,-2.53
2022-12-15T20:00:27.521Z,-2.52
2022-12-15T20:02:57.209Z,-2.52
2022-12-15T20:05:26.111Z,-2.53
2022-12-15T20:07:56.235Z,-2.54
2022-12-15T20:10:32.302Z,-2.54
2022-12-15T20:13:01.140Z,-2.54
2022-12-15T20:15:29.298Z,-2.56
2022-12-15T20:18:01.048Z,-2.59
2022-12-15T20:20:33.469Z,-2.63
2022-12-15T20:23:06.434Z,-2.62
2022-12-15T20:25:38.697Z,-2.59
2022-12-15T20:28:16.299Z,-2.58
2022-12-15T20:30:46.391Z,-2.59
2022-12-15T20:33:20.103Z,-2.58
2022-12-15T20:35:52.500Z,-2.56
2022-12-15T20:38:28.767Z,-2.52
2022-12-15T20:41:02.421Z,-2.46
2022-12-15T20:43:35.273Z,-2.43
2022-12-15T20:46:13.987Z,-2.38
2022-12-15T20:48:45.981Z,-2.34
2022-12-15T20:51:29.923Z,-2.31
2022-12-15T20:54:03.749Z,-2.31
2022-12-15T20:56:48.236Z,-2.28
2022-12-15T20:59:20.392Z,-2.30
2022-12-15T21:01:52.733Z,-2.28
2022-12-15T21:04:26.993Z,-2.30
2022-12-15T21:06:57.349Z,-2.30
2022-12-15T21:09:26.715Z,-2.34
2022-12-15T21:11:55.492Z,-2.34
2022-12-15T21:14:24.786Z,-2.35
2022-12-15T21:16:58.293Z,-2.35
2022-12-15T21:19:30.911Z,-2.38
2022-12-15T21:22:03.828Z,-2.42
2022-12-15T21:24:39.058Z,-2.43
2022-12-15T21:27:12.784Z,-2.45
2022-12-15T21:29:45.018Z,-2.46
2022-12-15T21:32:17.928Z,-2.48
2022-12-15T21:34:51.806Z,-2.51
2022-12-15T21:37:30.697Z,-2.54
2022-12-15T21:40:02.581Z,-2.55
2022-12-15T21:42:35.183Z,-2.57
2022-12-15T21:45:15.659Z,-2.56
2022-12-15T21:48:02.792Z,-2.55
2022-12-15T21:50:36.761Z,-2.50
2022-12-15T21:53:07.095Z,-2.45
2022-12-15T21:55:36.008Z,-2.38
2022-12-15T21:58:22.455Z,-2.32
2022-12-15T22:00:55.344Z,-2.28
2022-12-15T22:03:24.048Z,-2.24
2022-12-15T22:05:53.018Z,-2.22
2022-12-15T22:08:25.550Z,-2.19
2022-12-15T22:10:58.331Z,-2.18
2022-12-15T22:13:33.445Z,-2.18
2022-12-15T22:16:05.872Z,-2.20
2022-12-15T22:18:38.378Z,-2.22
2022-12-15T22:21:08.045Z,-2.21
2022-12-15T22:23:36.876Z,-2.23
2022-12-15T22:26:05.631Z,-2.25
2022-12-15T22:28:35.151Z,-2.28
2022-12-15T22:31:05.268Z,-2.31
2022-12-15T22:33:33.755Z,-2.35
2022-12-15T22:36:02.289Z,-2.36
2022-12-15T22:38:30.665Z,-2.40
2022-12-15T22:41:00.250Z,-2.43
2022-12-15T22:43:41.870Z,-2.45
2022-12-15T22:46:14.528Z,-2.50
2022-12-15T22:48:49.755Z,-2.56
2022-12-15T22:51:19.974Z,-2.60
2022-12-15T22:53:48.155Z,-2.67
2022-12-15T22:56:31.541Z,-2.70
2022-12-15T22:59:06.511Z,-2.75
2022-12-15T23:01:35.509Z,-2.78
2022-12-15T23:04:05.734Z,-2.80
2022-12-15T23:06:34.165Z,-2.83
2022-12-15T23:09:02.573Z,-2.83
2022-12-15T23:11:41.874Z,-2.82
2022-12-15T23:14:13.613Z,-2.80
2022-12-15T23:16:43.502Z,-2.80
2022-12-15T23:19:24.229Z,-2.76
2022-12-15T23:21:53.314Z,-2.72
2022-12-15T23:24:22.264Z,-2.69
2022-12-15T23:26:51.295Z,-2.66
2022-12-15T23:29:21.261Z,-2.62
2022-12-15T23:31:50.128Z,-2.59
2022-12-15T23:34:21.492Z,-2.58
2022-12-15T23:36:50.400Z,-2.58
2022-12-15T23:39:19.146Z,-2.59
2022-12-15T23:41:47.622Z,-2.61
2022-12-15T23:44:16.696Z,-2.65
2022-12-15T23:46:47.169Z,-2.66
2022-12-15T23:49:16.338Z,-2.69
2022-12-15T23:51:44.509Z,-2.73
2022-12-15T23:54:13.075Z,-2.76
2022-12-15T23:56:41.537Z,-2.78
2022-12-15T23:59:11.684Z,-2.80
